createdAt,value
2018-05-25T00:02:18.379Z,1.73
2018-05-25T00:04:46.603Z,1.40
2018-05-25T00:07:14.655Z,1.90
2018-05-25T00:09:42.939Z,1.60
2018-05-25T00:12:10.506Z,1.80
2018-05-25T00:14:38.520Z,1.40
2018-05-25T00:17:06.049Z,1.90
2018-05-25T00:19:34.015Z,1.27
2018-05-25T00:22:02.651Z,1.73
2018-05-25T00:24:30.870Z,1.20
2018-05-25T00:26:59.281Z,1.33
2018-05-25T00:29:27.579Z,1.57
2018-05-25T00:31:55.823Z,2.07
2018-05-25T00:34:23.504Z,1.67
2018-05-25T00:36:51.794Z,1.57
2018-05-25T00:39:19.328Z,1.90
2018-05-25T00:41:46.931Z,1.63
2018-05-25T00:44:14.488Z,2.10
2018-05-25T00:46:42.016Z,1.93
2018-05-25T00:49:09.698Z,1.70
2018-05-25T00:51:37.271Z,1.57
2018-05-25T00:54:04.836Z,1.57
2018-05-25T00:56:32.375Z,1.80
2018-05-25T00:58:59.948Z,1.70
2018-05-25T01:01:27.649Z,1.90
2018-05-25T01:03:55.186Z,1.77
2018-05-25T01:06:23.567Z,1.70
2018-05-25T01:08:51.823Z,1.57
2018-05-25T01:11:19.857Z,2.30
2018-05-25T01:13:47.543Z,1.70
2018-05-25T01:16:16.328Z,1.93
2018-05-25T01:18:44.260Z,1.33
2018-05-25T01:21:12.565Z,2.10
2018-05-25T01:23:40.104Z,1.90
2018-05-25T01:26:08.404Z,2.17
2018-05-25T01:28:36.754Z,2.00
2018-05-25T01:31:04.292Z,1.90
2018-05-25T01:33:31.842Z,1.83
2018-05-25T01:36:00.255Z,2.20
2018-05-25T01:38:27.784Z,2.10
2018-05-25T01:40:55.322Z,1.50
2018-05-25T01:43:22.965Z,2.10
2018-05-25T01:45:50.519Z,1.70
2018-05-25T01:48:18.104Z,2.00
2018-05-25T01:50:45.758Z,1.70
2018-05-25T01:53:13.305Z,2.13
2018-05-25T01:55:40.844Z,1.87
2018-05-25T01:58:08.503Z,1.97
2018-05-25T02:00:36.389Z,1.50
2018-05-25T02:03:03.921Z,1.77
2018-05-25T02:05:32.304Z,1.70
2018-05-25T02:08:00.517Z,1.50
2018-05-25T02:10:28.598Z,1.70
2018-05-25T02:12:56.162Z,1.87
2018-05-25T02:15:25.568Z,1.93
2018-05-25T02:17:53.299Z,1.90
2018-05-25T02:20:20.897Z,1.30
2018-05-25T02:22:49.098Z,1.80
2018-05-25T02:25:16.766Z,1.70
2018-05-25T02:27:44.947Z,1.77
2018-05-25T02:30:12.511Z,1.97
2018-05-25T02:32:40.089Z,2.10
2018-05-25T02:35:07.663Z,1.80
2018-05-25T02:37:35.924Z,2.03
2018-05-25T02:42:45.333Z,1.90
2018-05-25T02:45:13.114Z,1.77
2018-05-25T02:47:40.689Z,2.33
2018-05-25T02:50:08.289Z,1.70
2018-05-25T02:52:35.850Z,2.17
2018-05-25T02:55:03.408Z,1.80
2018-05-25T02:57:30.999Z,1.80
2018-05-25T02:59:58.708Z,1.60
2018-05-25T03:02:26.241Z,1.50
2018-05-25T03:04:53.808Z,1.50
2018-05-25T03:07:22.235Z,1.30
2018-05-25T03:09:50.781Z,1.43
2018-05-25T03:12:18.323Z,1.60
2018-05-25T03:14:46.904Z,2.00
2018-05-25T03:17:14.446Z,1.60
2018-05-25T03:19:41.976Z,1.77
2018-05-25T03:22:10.455Z,1.50
2018-05-25T03:24:37.994Z,1.80
2018-05-25T03:27:06.468Z,1.83
2018-05-25T03:29:34.818Z,1.47
2018-05-25T03:32:02.368Z,1.70
2018-05-25T03:34:29.899Z,1.60
2018-05-25T03:36:58.075Z,1.57
2018-05-25T03:39:25.610Z,1.50
2018-05-25T03:41:53.390Z,1.17
2018-05-25T03:44:21.004Z,1.40
2018-05-25T03:46:48.535Z,1.53
2018-05-25T03:49:17.785Z,1.23
2018-05-25T03:51:45.461Z,1.50
2018-05-25T03:54:13.021Z,1.20
2018-05-25T03:56:41.695Z,2.13
2018-05-25T03:59:21.918Z,1.43
2018-05-25T04:02:01.028Z,1.27
2018-05-25T04:04:28.597Z,1.30
2018-05-25T04:06:57.050Z,1.87
2018-05-25T04:09:25.499Z,1.20
2018-05-25T04:11:53.703Z,1.70
2018-05-25T04:14:21.862Z,2.00
2018-05-25T04:16:49.365Z,1.30
2018-05-25T04:21:54.340Z,1.70
2018-05-25T04:24:21.885Z,1.50
2018-05-25T04:26:50.419Z,1.57
2018-05-25T04:29:17.964Z,1.93
2018-05-25T04:31:45.639Z,1.40
2018-05-25T04:34:13.234Z,1.77
2018-05-25T04:36:40.780Z,1.30
2018-05-25T04:39:08.318Z,1.87
2018-05-25T04:41:35.887Z,1.50
2018-05-25T04:44:03.454Z,2.10
2018-05-25T04:46:31.003Z,1.17
2018-05-25T04:48:58.583Z,1.47
2018-05-25T04:51:26.407Z,1.10
2018-05-25T04:53:54.110Z,1.20
2018-05-25T04:56:21.707Z,1.67
2018-05-25T04:58:49.291Z,1.30
2018-05-25T05:01:17.167Z,1.20
2018-05-25T05:03:44.819Z,1.73
2018-05-25T05:06:13.175Z,1.00
2018-05-25T05:08:41.120Z,2.10
2018-05-25T05:11:09.445Z,1.43
2018-05-25T05:13:38.037Z,1.77
2018-05-25T05:16:06.297Z,0.90
2018-05-25T05:18:33.834Z,1.70
2018-05-25T05:21:02.583Z,1.37
2018-05-25T05:23:30.114Z,1.80
2018-05-25T05:25:57.664Z,1.20
2018-05-25T05:28:26.121Z,1.70
2018-05-25T05:30:53.667Z,1.50
2018-05-25T05:33:21.222Z,1.67
2018-05-25T05:35:49.874Z,1.43
2018-05-25T05:38:18.383Z,1.80
2018-05-25T05:40:46.439Z,2.00
2018-05-25T05:43:14.013Z,1.80
2018-05-25T05:45:41.543Z,1.77
2018-05-25T05:48:09.130Z,1.73
2018-05-25T05:50:36.818Z,2.10
2018-05-25T05:53:04.345Z,1.60
2018-05-25T05:55:31.911Z,1.50
2018-05-25T05:58:00.202Z,1.17
2018-05-25T06:00:27.753Z,1.13
2018-05-25T06:02:55.278Z,1.10
2018-05-25T06:05:23.813Z,1.07
2018-05-25T06:07:52.080Z,1.00
2018-05-25T06:10:21.770Z,1.00
2018-05-25T06:12:49.307Z,1.13
2018-05-25T06:15:18.695Z,1.00
2018-05-25T06:17:46.651Z,1.30
2018-05-25T06:20:14.197Z,0.80
2018-05-25T06:22:42.393Z,1.20
2018-05-25T06:25:09.931Z,0.90
2018-05-25T06:27:38.193Z,1.47
2018-05-25T06:30:05.796Z,0.80
2018-05-25T06:32:33.343Z,1.33
2018-05-25T06:35:00.916Z,1.00
2018-05-25T06:37:28.608Z,1.37
2018-05-25T06:39:56.160Z,0.90
2018-05-25T06:42:23.736Z,1.20
2018-05-25T06:44:51.268Z,0.87
2018-05-25T06:47:18.816Z,0.90
2018-05-25T06:49:47.838Z,0.90
2018-05-25T06:52:15.666Z,1.03
2018-05-25T06:54:43.211Z,1.83
2018-05-25T06:57:10.796Z,0.90
2018-05-25T06:59:38.339Z,1.10
2018-05-25T07:02:06.014Z,0.90
2018-05-25T07:04:34.079Z,1.73
2018-05-25T07:07:02.408Z,1.00
2018-05-25T07:09:30.784Z,1.10
2018-05-25T07:11:58.326Z,0.60
2018-05-25T07:14:26.891Z,1.13
2018-05-25T07:16:54.505Z,0.90
2018-05-25T07:19:22.461Z,0.97
2018-05-25T07:21:50.655Z,0.93
2018-05-25T07:24:18.194Z,0.73
2018-05-25T07:26:46.651Z,1.10
2018-05-25T07:29:14.211Z,1.20
2018-05-25T07:31:41.743Z,1.33
2018-05-25T07:34:09.316Z,1.00
2018-05-25T07:36:36.843Z,2.40
2018-05-25T07:39:04.527Z,1.27
2018-05-25T07:41:32.136Z,1.20
2018-05-25T07:43:59.673Z,1.13
2018-05-25T07:46:27.229Z,1.33
2018-05-25T07:48:54.813Z,0.90
2018-05-25T07:51:22.575Z,1.83
2018-05-25T07:53:50.117Z,1.30
2018-05-25T07:56:17.957Z,1.40
2018-05-25T07:58:45.628Z,1.20
2018-05-25T08:01:14.606Z,1.40
2018-05-25T08:03:42.144Z,1.70
2018-05-25T08:06:10.443Z,1.47
2018-05-25T08:08:37.976Z,1.57
2018-05-25T08:11:06.047Z,1.40
2018-05-25T08:13:34.430Z,1.80
2018-05-25T08:16:02.610Z,1.70
2018-05-25T08:18:30.167Z,1.80
2018-05-25T08:20:57.981Z,1.63
2018-05-25T08:23:26.929Z,2.17
2018-05-25T08:25:54.579Z,1.70
2018-05-25T08:28:22.551Z,1.73
2018-05-25T08:30:50.170Z,1.40
2018-05-25T08:33:18.258Z,2.00
2018-05-25T08:35:46.563Z,1.93
2018-05-25T08:38:14.471Z,1.87
2018-05-25T08:40:42.064Z,1.90
2018-05-25T08:43:09.658Z,1.90
2018-05-25T08:45:37.214Z,1.90
2018-05-25T08:48:04.787Z,2.20
2018-05-25T08:50:32.378Z,1.90
2018-05-25T08:52:59.944Z,1.77
2018-05-25T08:55:27.504Z,2.30
2018-05-25T08:57:55.079Z,1.77
2018-05-25T09:00:23.075Z,1.93
2018-05-25T09:02:50.635Z,2.30
2018-05-25T09:05:18.919Z,2.23
2018-05-25T09:07:46.804Z,1.80
2018-05-25T09:10:15.051Z,2.03
2018-05-25T09:12:42.582Z,2.43
2018-05-25T09:15:11.066Z,1.80
2018-05-25T09:17:38.630Z,2.57
2018-05-25T09:20:06.165Z,1.70
2018-05-25T09:22:34.443Z,2.77
2018-05-25T09:25:01.996Z,1.80
2018-05-25T09:27:30.239Z,2.00
2018-05-25T09:29:57.780Z,1.60
2018-05-25T09:32:25.449Z,3.10
2018-05-25T09:34:53.248Z,2.33
2018-05-25T09:37:20.782Z,2.07
2018-05-25T09:39:48.319Z,2.53
2018-05-25T09:42:16.168Z,2.10
2018-05-25T09:44:43.726Z,2.30
2018-05-25T09:47:11.290Z,2.70
2018-05-25T09:49:38.854Z,2.30
2018-05-25T09:52:06.526Z,2.27
2018-05-25T09:54:34.069Z,2.30
2018-05-25T09:57:02.559Z,2.40
2018-05-25T09:59:30.194Z,2.90
2018-05-25T10:04:56.548Z,2.53
2018-05-25T10:07:24.204Z,2.20
2018-05-25T10:09:52.586Z,2.13
2018-05-25T10:12:20.147Z,2.07
2018-05-25T10:14:48.475Z,2.00
2018-05-25T10:17:16.287Z,1.97
2018-05-25T10:19:43.830Z,2.27
2018-05-25T10:22:12.004Z,2.20
2018-05-25T10:24:39.523Z,2.53
2018-05-25T10:27:07.756Z,2.63
2018-05-25T10:29:35.295Z,3.23
2018-05-25T10:32:02.818Z,2.10
2018-05-25T10:34:30.423Z,2.40
2018-05-25T10:36:57.967Z,1.87
2018-05-25T10:39:25.679Z,2.80
2018-05-25T10:41:54.222Z,1.90
2018-05-25T10:44:21.770Z,2.00
2018-05-25T10:46:49.300Z,2.10
2018-05-25T10:49:17.075Z,1.70
2018-05-25T10:51:44.762Z,2.20
2018-05-25T10:54:13.091Z,2.13
2018-05-25T10:56:40.633Z,2.23
2018-05-25T10:59:08.169Z,2.00
2018-05-25T11:01:35.752Z,2.67
2018-05-25T11:04:03.295Z,2.13
2018-05-25T11:06:31.359Z,2.60
2018-05-25T11:08:58.890Z,2.10
2018-05-25T11:11:27.103Z,2.40
2018-05-25T11:13:56.354Z,2.10
2018-05-25T11:16:24.601Z,1.90
2018-05-25T11:18:53.760Z,2.60
2018-05-25T11:21:22.287Z,2.43
2018-05-25T11:23:49.810Z,2.33
2018-05-25T11:26:18.778Z,2.30
2018-05-25T11:28:47.332Z,2.13
2018-05-25T11:31:14.933Z,1.90
2018-05-25T11:33:42.457Z,2.47
2018-05-25T11:36:10.039Z,2.23
2018-05-25T11:38:37.571Z,2.70
2018-05-25T11:41:06.031Z,2.43
2018-05-25T11:43:33.817Z,2.53
2018-05-25T11:46:01.357Z,2.53
2018-05-25T11:48:28.931Z,2.67
2018-05-25T11:50:56.502Z,2.27
2018-05-25T11:53:25.082Z,2.93
2018-05-25T11:55:53.273Z,2.80
2018-05-25T11:58:20.922Z,1.90
2018-05-25T12:00:48.543Z,2.60
2018-05-25T12:03:17.113Z,2.37
2018-05-25T12:05:45.167Z,2.30
2018-05-25T12:08:13.055Z,2.63
2018-05-25T12:10:41.169Z,2.27
2018-05-25T12:13:09.526Z,2.90
2018-05-25T12:15:37.680Z,2.30
2018-05-25T12:18:05.217Z,2.57
2018-05-25T12:20:32.747Z,2.40
2018-05-25T12:23:01.042Z,3.17
2018-05-25T12:25:28.610Z,2.53
2018-05-25T12:27:56.704Z,2.77
2018-05-25T12:30:24.283Z,2.60
2018-05-25T12:32:51.875Z,2.60
2018-05-25T12:35:19.454Z,2.33
2018-05-25T12:37:47.120Z,2.63
2018-05-25T12:40:14.644Z,2.07
2018-05-25T12:42:42.229Z,2.07
2018-05-25T12:45:13.500Z,2.50
2018-05-25T12:47:41.042Z,2.30
2018-05-25T12:50:09.231Z,2.70
2018-05-25T12:52:36.775Z,2.47
2018-05-25T12:55:05.103Z,2.90
2018-05-25T12:57:32.650Z,2.03
2018-05-25T13:00:00.269Z,2.57
2018-05-25T13:02:27.902Z,2.33
2018-05-25T13:04:56.095Z,2.77
2018-05-25T13:07:23.630Z,2.43
2018-05-25T13:09:51.615Z,2.50
2018-05-25T13:15:17.858Z,2.47
2018-05-25T13:17:45.687Z,2.80
2018-05-25T13:20:13.285Z,2.40
2018-05-25T13:22:41.414Z,2.40
2018-05-25T13:25:08.948Z,2.10
2018-05-25T13:27:37.249Z,2.70
2018-05-25T13:30:04.855Z,2.23
2018-05-25T13:32:32.427Z,2.50
2018-05-25T13:35:00.006Z,2.37
2018-05-25T13:37:27.564Z,2.60
2018-05-25T13:39:55.313Z,2.43
2018-05-25T13:42:23.053Z,2.33
2018-05-25T13:44:50.588Z,2.07
2018-05-25T13:47:18.124Z,1.93
2018-05-25T13:49:45.796Z,2.23
2018-05-25T13:52:13.760Z,1.93
2018-05-25T13:54:42.123Z,2.10
2018-05-25T13:57:09.683Z,2.10
2018-05-25T13:59:37.216Z,3.10
2018-05-25T14:02:04.826Z,2.47
2018-05-25T14:04:32.391Z,2.47
2018-05-25T14:07:00.373Z,2.23
2018-05-25T14:09:28.407Z,3.00
2018-05-25T14:11:55.942Z,2.23
2018-05-25T14:14:24.929Z,2.40
2018-05-25T14:16:52.510Z,1.97
2018-05-25T14:19:20.198Z,2.73
2018-05-25T14:21:48.291Z,2.03
2018-05-25T14:24:16.024Z,2.40
2018-05-25T14:26:44.292Z,2.33
2018-05-25T14:29:11.977Z,2.43
2018-05-25T14:31:39.518Z,2.27
2018-05-25T14:34:07.095Z,2.40
2018-05-25T14:36:34.626Z,2.50
2018-05-25T14:39:02.163Z,2.27
2018-05-25T14:41:29.790Z,2.50
2018-05-25T14:43:57.360Z,2.17
2018-05-25T14:46:24.896Z,2.43
2018-05-25T14:48:52.549Z,2.40
2018-05-25T14:51:20.727Z,2.43
2018-05-25T14:53:49.075Z,2.70
2018-05-25T14:56:18.122Z,3.00
2018-05-25T14:58:45.659Z,2.50
2018-05-25T15:01:13.274Z,2.40
2018-05-25T15:03:40.802Z,2.67
2018-05-25T15:06:09.092Z,2.60
2018-05-25T15:08:36.614Z,2.87
2018-05-25T15:11:05.337Z,2.60
2018-05-25T15:13:33.367Z,2.93
2018-05-25T15:16:01.720Z,2.53
2018-05-25T15:18:29.270Z,2.67
2018-05-25T15:20:56.816Z,2.60
2018-05-25T15:23:24.738Z,2.93
2018-05-25T15:25:52.791Z,3.07
2018-05-25T15:28:20.829Z,2.57
2018-05-25T15:30:48.359Z,3.10
2018-05-25T15:33:16.086Z,2.60
2018-05-25T15:35:43.641Z,2.20
2018-05-25T15:38:11.191Z,2.37
2018-05-25T15:40:38.727Z,2.30
2018-05-25T15:43:06.351Z,2.37
2018-05-25T15:45:33.905Z,2.87
2018-05-25T15:48:02.057Z,2.30
2018-05-25T15:50:29.612Z,2.20
2018-05-25T15:52:57.174Z,3.57
2018-05-25T15:55:24.755Z,2.17
2018-05-25T15:57:52.304Z,2.50
2018-05-25T16:00:19.891Z,1.77
2018-05-25T16:02:47.660Z,2.27
2018-05-25T16:05:17.251Z,2.00
2018-05-25T16:07:44.798Z,2.37
2018-05-25T16:10:13.021Z,2.20
2018-05-25T16:12:40.563Z,2.00
2018-05-25T16:15:08.524Z,2.40
2018-05-25T16:17:36.059Z,2.20
2018-05-25T16:20:03.669Z,3.23
2018-05-25T16:22:32.416Z,2.60
2018-05-25T16:24:59.950Z,2.00
2018-05-25T16:27:28.042Z,2.70
2018-05-25T16:29:55.611Z,2.03
2018-05-25T16:32:23.309Z,2.40
2018-05-25T16:34:50.891Z,2.83
2018-05-25T16:37:18.435Z,2.13
2018-05-25T16:39:46.133Z,3.53
2018-05-25T16:42:13.732Z,2.03
2018-05-25T16:44:41.265Z,2.90
2018-05-25T16:47:09.389Z,2.40
2018-05-25T16:49:36.964Z,2.60
2018-05-25T16:52:04.506Z,2.33
2018-05-25T16:54:32.824Z,3.03
2018-05-25T16:57:00.411Z,2.13
2018-05-25T16:59:27.956Z,2.60
2018-05-25T17:01:55.548Z,2.20
2018-05-25T17:04:23.228Z,2.30
2018-05-25T17:06:51.301Z,2.70
2018-05-25T17:09:19.708Z,2.30
2018-05-25T17:11:48.615Z,2.63
2018-05-25T17:14:16.933Z,2.40
2018-05-25T17:16:44.882Z,2.57
2018-05-25T17:19:12.420Z,2.30
2018-05-25T17:21:40.724Z,3.27
2018-05-25T17:24:08.320Z,2.50
2018-05-25T17:26:36.597Z,2.70
2018-05-25T17:29:04.850Z,2.50
2018-05-25T17:31:32.383Z,2.67
2018-05-25T17:33:59.915Z,2.63
2018-05-25T17:36:27.498Z,2.80
2018-05-25T17:38:55.051Z,2.57
2018-05-25T17:41:22.899Z,1.97
2018-05-25T17:43:51.039Z,2.50
2018-05-25T17:46:18.650Z,1.83
2018-05-25T17:48:46.389Z,2.87
2018-05-25T17:51:14.035Z,2.93
2018-05-25T17:53:41.586Z,2.50
2018-05-25T17:56:09.328Z,2.27
2018-05-25T17:58:36.895Z,2.10
2018-05-25T18:01:04.448Z,2.37
2018-05-25T18:03:31.979Z,2.50
2018-05-25T18:06:00.456Z,2.33
2018-05-25T18:08:28.053Z,2.30
2018-05-25T18:10:56.327Z,2.40
2018-05-25T18:13:24.418Z,2.23
2018-05-25T18:15:52.623Z,1.90
2018-05-25T18:18:20.203Z,1.70
2018-05-25T18:20:47.936Z,2.70
2018-05-25T18:23:16.017Z,2.00
2018-05-25T18:25:43.588Z,2.30
2018-05-25T18:28:12.732Z,2.40
2018-05-25T18:30:40.280Z,2.30
2018-05-25T18:33:08.607Z,2.20
2018-05-25T18:35:36.201Z,2.97
2018-05-25T18:38:03.778Z,2.47
2018-05-25T18:40:31.551Z,2.83
2018-05-25T18:42:59.656Z,3.00
2018-05-25T18:45:27.197Z,2.30
2018-05-25T18:47:54.783Z,1.97
2018-05-25T18:50:22.360Z,1.90
2018-05-25T18:52:49.924Z,2.10
2018-05-25T18:55:17.617Z,2.30
2018-05-25T18:57:46.411Z,2.00
2018-05-25T19:00:13.964Z,2.57
2018-05-25T19:02:41.573Z,2.30
2018-05-25T19:05:09.914Z,2.63
2018-05-25T19:07:37.491Z,2.20
2018-05-25T19:10:05.712Z,2.83
2018-05-25T19:12:33.243Z,2.10
2018-05-25T19:15:01.526Z,2.73
2018-05-25T19:17:29.070Z,2.60
2018-05-25T19:19:56.641Z,2.43
2018-05-25T19:22:24.881Z,2.37
2018-05-25T19:24:52.477Z,2.33
2018-05-25T19:27:20.699Z,2.37
2018-05-25T19:29:48.508Z,3.23
2018-05-25T19:32:16.231Z,2.40
2018-05-25T19:34:43.790Z,3.10
2018-05-25T19:37:11.331Z,3.40
2018-05-25T19:39:39.589Z,3.67
2018-05-25T19:42:07.120Z,4.30
2018-05-25T19:44:34.668Z,3.53
2018-05-25T19:47:02.259Z,4.33
2018-05-25T19:49:29.811Z,2.87
2018-05-25T19:51:57.463Z,4.30
2018-05-25T19:54:25.052Z,2.97
2018-05-25T19:56:52.648Z,4.03
2018-05-25T19:59:20.196Z,3.20
2018-05-25T20:01:48.663Z,3.53
2018-05-25T20:04:16.953Z,3.23
2018-05-25T20:06:46.830Z,2.87
2018-05-25T20:09:15.818Z,2.90
2018-05-25T20:11:44.631Z,2.97
2018-05-25T20:14:12.783Z,3.37
2018-05-25T20:16:40.843Z,2.93
2018-05-25T20:19:08.371Z,3.17
2018-05-25T20:21:36.567Z,3.07
2018-05-25T20:24:04.095Z,4.10
2018-05-25T20:26:32.065Z,2.93
2018-05-25T20:29:01.170Z,3.67
2018-05-25T20:31:29.319Z,3.40
2018-05-25T20:33:56.984Z,4.30
2018-05-25T20:36:24.905Z,3.53
2018-05-25T20:38:52.486Z,3.90
2018-05-25T20:41:20.065Z,3.20
2018-05-25T20:43:48.051Z,3.27
2018-05-25T20:46:16.168Z,2.97
2018-05-25T20:48:43.833Z,2.67
2018-05-25T20:51:11.432Z,3.17
2018-05-25T20:53:38.991Z,2.60
2018-05-25T20:56:06.550Z,2.50
2018-05-25T20:58:34.127Z,2.87
2018-05-25T21:01:01.685Z,2.60
2018-05-25T21:03:29.229Z,3.20
2018-05-25T21:05:57.562Z,2.80
2018-05-25T21:08:25.102Z,3.67
2018-05-25T21:10:53.874Z,2.70
2018-05-25T21:13:21.998Z,3.23
2018-05-25T21:15:50.103Z,2.60
2018-05-25T21:18:18.570Z,3.10
2018-05-25T21:20:46.751Z,2.97
2018-05-25T21:23:14.685Z,2.93
2018-05-25T21:25:42.214Z,2.40
2018-05-25T21:28:10.411Z,2.30
2018-05-25T21:30:37.948Z,2.93
2018-05-25T21:33:05.624Z,3.10
2018-05-25T21:35:33.204Z,3.30
2018-05-25T21:38:00.780Z,2.70
2018-05-25T21:40:28.851Z,3.20
2018-05-25T21:42:56.428Z,2.90
2018-05-25T21:45:24.826Z,2.97
2018-05-25T21:47:52.486Z,2.87
2018-05-25T21:50:20.078Z,3.70
2018-05-25T21:52:48.391Z,2.73
2018-05-25T21:55:16.884Z,2.73
2018-05-25T21:57:44.532Z,2.63
2018-05-25T22:00:12.170Z,2.90
2018-05-25T22:02:39.769Z,2.67
2018-05-25T22:05:08.116Z,2.80
2018-05-25T22:07:35.687Z,3.37
2018-05-25T22:10:04.089Z,2.83
2018-05-25T22:12:31.787Z,3.53
2018-05-25T22:15:00.290Z,2.60
2018-05-25T22:17:27.978Z,3.07
2018-05-25T22:19:55.605Z,2.73
2018-05-25T22:22:23.985Z,3.40
2018-05-25T22:24:51.543Z,2.87
2018-05-25T22:27:19.832Z,3.33
2018-05-25T22:29:48.203Z,2.50
2018-05-25T22:32:16.481Z,3.53
2018-05-25T22:34:44.071Z,2.60
2018-05-25T22:37:11.753Z,2.93
2018-05-25T22:39:39.783Z,2.63
2018-05-25T22:42:06.798Z,2.50
2018-05-25T22:44:46.705Z,3.53
2018-05-25T22:47:26.116Z,2.73
2018-05-25T22:50:05.645Z,2.63
2018-05-25T22:52:38.221Z,3.40
2018-05-25T22:55:11.490Z,3.27
2018-05-25T22:57:39.050Z,2.70
2018-05-25T23:00:06.736Z,2.60
2018-05-25T23:02:34.319Z,2.90
2018-05-25T23:05:03.328Z,2.70
2018-05-25T23:07:30.878Z,3.57
2018-05-25T23:09:59.083Z,2.80
2018-05-25T23:12:26.629Z,3.27
2018-05-25T23:14:54.909Z,3.10
2018-05-25T23:17:22.474Z,3.93
2018-05-25T23:19:50.019Z,2.63
2018-05-25T23:22:19.526Z,4.43
2018-05-25T23:24:48.159Z,3.10
2018-05-25T23:27:17.959Z,3.37
2018-05-25T23:29:45.626Z,2.50
2018-05-25T23:32:13.427Z,3.30
2018-05-25T23:34:41.565Z,2.60
2018-05-25T23:37:09.117Z,3.30
2018-05-25T23:39:37.657Z,3.20
2018-05-25T23:42:05.239Z,3.20
2018-05-25T23:44:32.819Z,2.90
2018-05-25T23:47:00.517Z,3.00
2018-05-25T23:49:28.067Z,3.30
2018-05-25T23:51:55.633Z,3.33
2018-05-25T23:54:23.525Z,3.53
2018-05-25T23:56:51.110Z,2.93
2018-05-25T23:59:18.651Z,3.53
